Time;durP1;ratioP1;P1;durP2;ratioP2;P2;SDS_P1;SDS_P2;PMS_P1;PMS_P2;Temp;Humidity;BMP_temperature;BMP_pressure;BME280_temperature;BME280_humidity;BME280_pressure;Samples;Min_cycle;Max_cycle;Signal;HPM_P1;HPM_P2
2023/03/17 00:01:49;;;;;;;15.13;8.48;;;2.60;99.90;;;;;;6245256;23;20038;-83
2023/03/17 00:04:37;;;;;;;;;;;2.60;99.90;;;;;;6246815;23;20110;-84
2023/03/17 00:07:25;;;;;;;12.38;7.80;;;2.60;1.00;;;;;;6246410;23;20303;-84
2023/03/17 00:10:24;;;;;;;12.77;6.80;;;2.70;1.00;;;;;;6223839;23;20020;-84
2023/03/17 00:13:11;;;;;;;10.25;7.03;;;3.00;1.00;;;;;;6246838;23;20032;-84
2023/03/17 00:16:03;;;;;;;17.15;8.85;;;3.20;1.00;;;;;;6248245;22;20028;-84
2023/03/17 00:18:52;;;;;;;14.88;9.43;;;3.40;1.00;;;;;;6247443;22;20042;-84
2023/03/17 00:21:40;;;;;;;13.57;8.15;;;3.50;99.90;;;;;;6245979;23;20052;-84
2023/03/17 00:24:28;;;;;;;12.75;8.00;;;3.60;99.90;;;;;;6247156;23;20028;-84
2023/03/17 00:27:20;;;;;;;10.65;7.60;;;3.60;99.90;;;;;;6248519;22;20024;-84
2023/03/17 00:30:09;;;;;;;12.80;7.75;;;3.60;99.90;;;;;;6247368;23;20016;-83
2023/03/17 00:32:57;;;;;;;9.40;6.25;;;3.50;99.90;;;;;;6245357;23;20039;-84
2023/03/17 00:35:45;;;;;;;10.45;6.93;;;3.50;99.90;;;;;;6247405;22;20043;-84
2023/03/17 00:38:32;;;;;;;10.45;6.28;;;3.40;99.90;;;;;;6223972;23;20031;-83
2023/03/17 00:41:20;;;;;;;13.73;6.88;;;3.40;99.90;;;;;;6243204;23;20032;-84
2023/03/17 00:44:07;;;;;;;12.02;7.00;;;3.40;99.90;;;;;;6246918;23;20388;-84
2023/03/17 00:46:55;;;;;;;11.48;5.97;;;3.30;99.90;;;;;;6223762;23;20060;-84
2023/03/17 00:49:42;;;;;;;9.05;5.80;;;3.30;99.90;;;;;;6245847;23;20024;-84
2023/03/17 00:52:30;;;;;;;9.73;6.60;;;3.40;99.90;;;;;;6247157;23;20035;-83
2023/03/17 00:55:20;;;;;;;11.20;6.30;;;3.40;99.90;;;;;;6244572;23;20028;-83
2023/03/17 00:58:27;;;;;;;11.40;6.65;;;3.50;99.90;;;;;;6247049;23;20110;-84
2023/03/17 01:01:17;;;;;;;10.20;6.35;;;3.70;99.90;;;;;;6245417;23;20438;-84
2023/03/17 01:04:07;;;;;;;10.20;6.15;;;3.80;99.90;;;;;;6244464;23;20331;-84
2023/03/17 01:06:54;;;;;;;9.70;6.13;;;4.00;99.90;;;;;;6244186;23;20028;-85
2023/03/17 01:09:44;;;;;;;10.00;6.05;;;4.00;99.90;;;;;;6248590;22;20075;-84
2023/03/17 01:12:31;;;;;;;8.98;5.93;;;3.90;99.90;;;;;;6255693;23;20108;-83
2023/03/17 01:15:23;;;;;;;8.15;5.95;;;3.90;99.90;;;;;;6254877;23;20335;-84
2023/03/17 01:18:12;;;;;;;10.50;6.10;;;3.90;99.90;;;;;;6234407;23;20058;-84
2023/03/17 01:21:01;;;;;;;10.57;6.30;;;3.80;99.90;;;;;;6236180;22;20020;-83
2023/03/17 01:23:48;;;;;;;11.75;5.85;;;3.80;99.90;;;;;;6259564;23;20028;-86
2023/03/17 01:26:36;;;;;;;11.30;6.13;;;3.70;99.90;;;;;;6263618;23;20020;-83
2023/03/17 01:29:26;;;;;;;8.73;5.93;;;3.60;99.90;;;;;;6259549;23;20078;-85
2023/03/17 01:32:15;;;;;;;9.55;6.07;;;3.60;99.90;;;;;;6250225;23;20024;-86
2023/03/17 01:35:03;;;;;;;9.18;6.18;;;3.60;99.90;;;;;;6247864;23;20031;-84
2023/03/17 01:37:51;;;;;;;10.93;6.65;;;3.50;99.90;;;;;;6247469;23;20028;-84
2023/03/17 01:40:44;;;;;;;7.70;5.93;;;3.50;99.90;;;;;;6248550;23;20047;-85
2023/03/17 01:43:32;;;;;;;7.97;5.82;;;3.50;99.90;;;;;;6246756;23;20103;-86
2023/03/17 01:46:26;;;;;;;9.85;5.85;;;3.70;99.90;;;;;;6244051;23;20024;-84
2023/03/17 01:49:22;;;;;;;11.65;6.50;;;3.80;99.90;;;;;;6248294;22;20035;-83
2023/03/17 01:52:14;;;;;;;8.68;5.95;;;3.90;99.90;;;;;;6242902;23;20035;-85
2023/03/17 01:55:05;;;;;;;14.25;5.95;;;4.00;99.90;;;;;;6245595;23;20040;-85
2023/03/17 01:57:58;;;;;;;6.45;5.38;;;4.10;99.90;;;;;;6245394;23;20032;-83
2023/03/17 02:00:45;;;;;;;9.98;6.03;;;4.10;99.90;;;;;;6245772;23;20032;-82
2023/03/17 02:03:33;;;;;;;7.28;4.72;;;4.00;99.90;;;;;;6245881;23;20028;-83
2023/03/17 02:06:21;;;;;;;8.57;4.95;;;4.00;99.90;;;;;;6245498;23;20040;-83
2023/03/17 02:09:08;;;;;;;7.18;4.95;;;4.10;99.90;;;;;;6245363;23;20099;-83
2023/03/17 02:12:00;;;;;;;7.45;4.97;;;4.00;99.90;;;;;;6237423;23;20024;-83
2023/03/17 02:14:48;;;;;;;5.80;4.05;;;4.00;99.90;;;;;;6260939;23;20602;-84
2023/03/17 02:17:35;;;;;;;6.78;4.75;;;4.00;99.90;;;;;;6260353;23;20012;-84
2023/03/17 02:20:23;;;;;;;7.35;4.15;;;4.10;99.90;;;;;;6263056;22;20028;-86
2023/03/17 02:23:10;;;;;;;7.78;4.10;;;4.10;99.90;;;;;;6268473;22;20024;-83
2023/03/17 02:26:00;;;;;;;6.78;4.70;;;4.30;99.90;;;;;;6273550;22;20024;-85
2023/03/17 02:28:47;;;;;;;9.20;5.00;;;4.40;99.90;;;;;;6262302;23;20059;-84
2023/03/17 02:31:34;;;;;;;6.22;4.57;;;4.30;99.90;;;;;;6261984;23;20028;-85
2023/03/17 02:34:24;;;;;;;7.35;4.35;;;4.10;99.90;;;;;;6262417;23;20024;-85
2023/03/17 02:37:12;;;;;;;5.45;3.72;;;4.10;99.90;;;;;;6256415;23;20408;-86
2023/03/17 02:40:00;;;;;;;4.70;3.80;;;4.00;99.90;;;;;;6249422;23;20024;-84
2023/03/17 02:42:48;;;;;;;7.50;3.80;;;4.00;99.90;;;;;;6248507;23;20044;-85
2023/03/17 02:45:35;;;;;;;7.88;3.90;;;4.00;99.90;;;;;;6224910;23;20068;-84
2023/03/17 02:48:22;;;;;;;7.10;3.60;;;4.00;99.90;;;;;;6245813;23;20031;-86
2023/03/17 02:51:12;;;;;;;4.57;3.55;;;4.20;99.90;;;;;;6248628;22;20420;-85
2023/03/17 02:53:59;;;;;;;6.82;4.15;;;4.30;99.90;;;;;;6245373;23;20025;-84
2023/03/17 02:56:47;;;;;;;6.47;3.95;;;4.30;99.90;;;;;;6246940;23;20363;-85
2023/03/17 02:59:36;;;;;;;11.13;4.25;;;4.40;99.90;;;;;;6248473;22;20107;-85
2023/03/17 03:02:23;;;;;;;6.28;4.30;;;4.50;99.90;;;;;;6246774;23;20028;-85
2023/03/17 03:05:10;;;;;;;7.13;3.97;;;4.40;99.90;;;;;;6244880;23;20388;-85
2023/03/17 03:07:57;;;;;;;5.85;3.47;;;4.40;99.90;;;;;;6246486;23;20127;-86
2023/03/17 03:10:47;;;;;;;4.05;3.13;;;4.50;99.90;;;;;;6246882;23;20412;-85
2023/03/17 03:13:35;;;;;;;4.68;3.40;;;4.50;99.90;;;;;;6247250;23;20123;-85
2023/03/17 03:16:25;;;;;;;5.13;3.45;;;4.60;99.90;;;;;;6247431;23;20031;-85
2023/03/17 03:19:12;;;;;;;7.82;3.33;;;4.70;95.80;;;;;;6247236;22;20024;-85
2023/03/17 03:21:59;;;;;;;7.78;3.63;;;4.80;91.40;;;;;;6224561;23;20046;-85
2023/03/17 03:24:46;;;;;;;5.97;3.55;;;5.00;82.40;;;;;;6245826;23;20411;-85
2023/03/17 03:27:35;;;;;;;3.60;3.13;;;5.00;68.40;;;;;;6245740;23;20078;-85
2023/03/17 03:30:26;;;;;;;5.75;3.65;;;5.00;57.60;;;;;;6247226;23;20330;-85
2023/03/17 03:33:15;;;;;;;6.00;3.42;;;5.00;55.70;;;;;;6247247;23;20412;-85
2023/03/17 03:36:02;;;;;;;5.22;3.10;;;4.90;52.80;;;;;;6247149;23;20073;-85
2023/03/17 03:38:54;;;;;;;5.70;3.50;;;4.80;50.70;;;;;;6244225;23;20039;-85
2023/03/17 03:41:42;;;;;;;8.65;3.13;;;4.80;49.10;;;;;;6246348;23;20109;-85
2023/03/17 03:44:37;;;;;;;5.40;3.28;;;4.70;47.10;;;;;;6244771;23;20427;-85
2023/03/17 03:47:24;;;;;;;6.78;3.13;;;4.60;51.20;;;;;;6244564;23;20024;-85
2023/03/17 03:50:15;;;;;;;6.47;3.25;;;4.40;54.60;;;;;;6244216;23;20374;-85
2023/03/17 03:53:02;;;;;;;6.38;3.35;;;4.40;55.20;;;;;;6224170;23;20031;-85
2023/03/17 03:55:50;;;;;;;7.40;3.33;;;4.30;52.70;;;;;;6223458;23;20086;-85
2023/03/17 03:58:37;;;;;;;5.95;3.30;;;4.20;55.70;;;;;;6248121;22;20035;-85
2023/03/17 04:01:24;;;;;;;5.80;3.25;;;4.30;54.40;;;;;;6247759;22;20311;-85
2023/03/17 04:04:11;;;;;;;5.32;3.40;;;4.30;55.10;;;;;;6245520;23;20366;-85
2023/03/17 04:07:01;;;;;;;4.20;3.28;;;4.40;56.20;;;;;;6244248;23;20086;-85
2023/03/17 04:09:50;;;;;;;7.80;3.50;;;4.20;50.90;;;;;;6246615;23;20020;-84
2023/03/17 04:12:41;;;;;;;9.60;3.75;;;4.20;50.70;;;;;;6244206;23;20032;-85
2023/03/17 04:15:28;;;;;;;4.90;3.60;;;4.10;57.10;;;;;;6223984;23;20051;-85
2023/03/17 04:18:15;;;;;;;7.00;3.63;;;3.90;64.40;;;;;;6244431;23;20028;-84
2023/03/17 04:21:03;;;;;;;6.30;3.92;;;3.80;68.40;;;;;;6245570;23;20101;-84
2023/03/17 04:23:50;;;;;;;8.85;4.35;;;3.70;72.00;;;;;;6245319;23;20035;-85
2023/03/17 04:26:38;;;;;;;6.88;4.20;;;3.60;78.90;;;;;;6244973;23;20419;-85
2023/03/17 04:29:27;;;;;;;6.15;3.42;;;3.40;90.90;;;;;;6245714;23;20056;-84
2023/03/17 04:32:17;;;;;;;5.75;3.67;;;3.30;97.50;;;;;;6246434;22;20110;-86
2023/03/17 04:35:05;;;;;;;6.95;4.20;;;3.10;99.90;;;;;;6245234;23;20463;-86
2023/03/17 04:37:53;;;;;;;5.88;3.65;;;3.00;99.90;;;;;;6245314;23;20035;-85
2023/03/17 04:40:40;;;;;;;5.60;3.30;;;3.00;99.90;;;;;;6246259;23;20035;-84
2023/03/17 04:43:27;;;;;;;6.28;3.58;;;3.10;99.90;;;;;;6246246;22;20101;-85
2023/03/17 04:46:15;;;;;;;5.95;3.72;;;3.10;99.90;;;;;;6245477;23;20100;-84
2023/03/17 04:49:02;;;;;;;6.10;3.75;;;3.00;99.90;;;;;;6245930;23;20024;-84
2023/03/17 04:51:54;;;;;;;5.65;3.78;;;2.90;99.90;;;;;;6244626;23;20044;-84
2023/03/17 04:54:41;;;;;;;8.98;3.75;;;2.80;99.90;;;;;;6243744;23;20269;-85
2023/03/17 04:57:29;;;;;;;5.47;3.35;;;2.60;99.90;;;;;;6246293;23;20097;-84
2023/03/17 05:00:17;;;;;;;5.00;3.55;;;2.50;99.90;;;;;;6246964;22;20333;-84
2023/03/17 05:06:45;;;;;;;10.52;4.40;;;2.20;99.90;;;;;;6245121;23;20020;-83
2023/03/17 05:09:32;;;;;;;6.10;3.95;;;2.10;99.90;;;;;;6223723;23;20024;-86
2023/03/17 05:12:19;;;;;;;5.50;4.03;;;2.20;99.90;;;;;;6223727;23;20038;-82
2023/03/17 05:15:08;;;;;;;8.10;4.22;;;2.20;99.90;;;;;;6245739;22;20024;-86
2023/03/17 05:17:56;;;;;;;9.73;4.45;;;2.20;99.90;;;;;;6246605;22;20040;-83
2023/03/17 05:20:43;;;;;;;8.02;4.50;;;2.20;99.90;;;;;;6245601;23;20028;-83
2023/03/17 05:23:31;;;;;;;8.02;4.20;;;2.10;99.90;;;;;;6246180;23;20416;-83
2023/03/17 05:26:18;;;;;;;6.72;4.05;;;2.00;99.90;;;;;;6244635;23;20027;-83
2023/03/17 05:29:08;;;;;;;7.03;4.15;;;1.90;99.90;;;;;;6245274;23;20020;-83
2023/03/17 05:31:55;;;;;;;6.40;4.07;;;2.00;99.90;;;;;;6247024;22;20024;-83
2023/03/17 05:34:43;;;;;;;4.88;3.53;;;2.10;99.90;;;;;;6244445;23;20020;-85
2023/03/17 05:37:33;;;;;;;13.75;4.93;;;2.20;99.90;;;;;;6246795;22;20028;-85
2023/03/17 05:40:22;;;;;;;9.13;4.45;;;2.30;99.90;;;;;;6258458;23;20096;-84
2023/03/17 05:43:10;;;;;;;11.90;5.15;;;2.30;99.90;;;;;;6253375;22;20055;-85
2023/03/17 05:45:57;;;;;;;7.93;4.25;;;2.30;99.90;;;;;;6252122;22;20055;-87
2023/03/17 05:48:45;;;;;;;6.10;3.67;;;2.30;99.90;;;;;;6225619;23;20039;-88
2023/03/17 05:51:33;;;;;;;8.88;4.63;;;2.50;99.90;;;;;;6249584;22;20290;-87
2023/03/17 05:54:25;;;;;;;8.18;4.47;;;2.60;99.90;;;;;;6226699;23;20078;-88
2023/03/17 05:57:15;;;;;;;8.40;5.07;;;2.60;99.90;;;;;;6246666;23;20082;-88
2023/03/17 06:00:04;;;;;;;8.57;5.75;;;2.50;99.90;;;;;;6247704;22;20039;-87
2023/03/17 06:02:51;;;;;;;9.35;5.00;;;2.50;99.90;;;;;;6246103;23;20032;-86
2023/03/17 06:05:38;;;;;;;12.82;6.22;;;2.60;99.90;;;;;;6234552;23;20047;-84
2023/03/17 06:08:28;;;;;;;13.60;6.10;;;2.80;99.90;;;;;;6244636;23;20095;-84
2023/03/17 06:11:19;;;;;;;13.27;5.63;;;2.90;99.90;;;;;;6247401;22;20039;-83
2023/03/17 06:14:06;;;;;;;10.55;6.15;;;2.90;99.90;;;;;;6246268;23;20028;-84
2023/03/17 06:16:54;;;;;;;13.93;5.82;;;2.80;99.90;;;;;;6246925;23;20028;-84
2023/03/17 06:19:41;;;;;;;10.05;5.63;;;2.80;99.90;;;;;;6245841;23;20440;-84
2023/03/17 06:22:37;;;;;;;9.25;4.95;;;2.90;99.90;;;;;;6247345;22;20036;-85
2023/03/17 06:25:38;;;;;;;7.50;4.00;;;3.10;99.90;;;;;;6246280;23;20024;-86
2023/03/17 06:28:27;;;;;;;12.23;4.03;;;3.50;99.90;;;;;;6223946;23;20079;-86
2023/03/17 06:31:15;;;;;;;3.97;3.15;;;3.90;99.90;;;;;;6246054;23;20094;-86
2023/03/17 06:34:23;;;;;;;4.22;2.97;;;4.40;99.90;;;;;;6225798;23;20066;-84
2023/03/17 06:37:50;;;;;;;5.22;3.35;;;4.80;99.90;;;;;;6223521;23;20028;-85
2023/03/17 06:45:45;;;;;;;3.13;2.78;;;5.80;79.70;;;;;;6221978;23;20040;-85
2023/03/17 06:49:12;;;;;;;5.30;3.10;;;6.30;57.10;;;;;;6247162;23;20027;-86
2023/03/17 06:53:23;;;;;;;;;;;;;;;;;;;;;
2023/03/17 07:04:45;;;;;;;5.57;3.35;;;7.70;19.20;;;;;;6070065;23;20315;-84
2023/03/17 07:08:04;;;;;;;6.25;3.53;;;7.90;15.30;;;;;;6086969;23;20133;-86
2023/03/17 07:11:32;;;;;;;;;;;;;;;;;;;;;
2023/03/17 07:14:38;;;;;;;8.45;4.20;;;8.30;12.30;;;;;;6149325;23;20029;-84
2023/03/17 07:17:57;;;;;;;3.90;3.08;;;8.50;9.20;;;;;;6152886;23;20033;-84
2023/03/17 07:20:56;;;;;;;;;;;8.60;2.90;;;;;;6152864;23;20481;-86
2023/03/17 07:23:57;;;;;;;;;;;;;;;;;;;;;
2023/03/17 07:27:30;;;;;;;6.00;3.05;;;8.70;1.00;;;;;;6206500;23;20028;-86
2023/03/17 07:31:07;;;;;;;;;;;;;;;;;;;;;
2023/03/17 07:34:26;;;;;;;5.70;3.50;;;9.00;1.00;;;;;;6238867;23;20129;-83
2023/03/17 07:41:54;;;;;;;;;;;;;;;;;;;;;
2023/03/17 07:45:25;;;;;;;8.23;3.65;;;9.30;2.60;;;;;;6246182;23;20035;-84
2023/03/17 07:54:12;;;;;;;;;;;;;;;;;;;;;
2023/03/17 07:57:35;;;;;;;;;;;;;;;;;;;;;
2023/03/17 08:01:00;;;;;;;8.32;3.55;;;10.50;5.40;;;;;;6155619;23;20037;-84
2023/03/17 08:04:05;;;;;;;;;;;;;;;;;;;;;
2023/03/17 08:07:09;;;;;;;6.65;3.90;;;10.40;1.00;;;;;;6232444;23;20135;-84
2023/03/17 08:09:57;;;;;;;6.93;3.85;;;10.00;1.00;;;;;;6223290;23;20038;-85
2023/03/17 08:12:45;;;;;;;6.35;3.40;;;9.90;1.00;;;;;;6219213;23;20031;-85
2023/03/17 08:15:33;;;;;;;4.93;3.42;;;10.10;1.00;;;;;;6222052;23;20028;-88
2023/03/17 08:18:26;;;;;;;6.88;3.85;;;10.20;1.00;;;;;;6220953;23;20024;-86
2023/03/17 08:21:34;;;;;;;15.55;4.10;;;10.40;1.00;;;;;;6225918;23;20028;-86
2023/03/17 08:24:32;;;;;;;;;;;;;;;;;;;;;
2023/03/17 11:39:01;;;;;;;3.08;0.95;;;23.60;1.00;;;;;;6240783;22;20028;-89
2023/03/17 11:43:01;;;;;;;;;;;;;;;;;;;;;
2023/03/17 11:46:14;;;;;;;1.38;0.70;;;25.90;1.00;;;;;;6140322;23;20321;-90
2023/03/17 11:49:27;;;;;;;0.68;0.60;;;27.00;1.00;;;;;;6190432;23;20468;-89
2023/03/17 11:52:39;;;;;;;0.68;0.60;;;25.80;1.00;;;;;;6187193;23;20029;-87
2023/03/17 11:55:50;;;;;;;;;;;25.50;1.00;;;;;;6160478;23;20950;-87
2023/03/17 11:58:52;;;;;;;3.15;0.90;;;25.10;1.00;;;;;;6189373;23;19916;-91
2023/03/17 12:06:19;;;;;;;4.60;1.23;;;24.50;1.00;;;;;;6052856;23;20044;-88
2023/03/17 12:09:28;;;;;;;2.58;0.90;;;23.60;1.00;;;;;;6045515;23;20026;-88
2023/03/17 12:12:29;;;;;;;0.80;0.60;;;24.10;1.00;;;;;;6056262;23;20030;-90
2023/03/17 12:15:46;;;;;;;1.42;0.60;;;25.10;1.00;;;;;;6077996;23;20029;-87
2023/03/17 12:19:28;;;;;;;1.25;0.50;;;26.00;1.00;;;;;;6182667;23;20122;-87
2023/03/17 12:22:31;;;;;;;1.25;0.80;;;26.00;1.00;;;;;;6197226;23;20032;-88
2023/03/17 12:25:46;;;;;;;1.50;0.60;;;24.60;1.00;;;;;;6200663;23;20039;-89
2023/03/17 12:28:55;;;;;;;1.70;0.80;;;23.90;1.00;;;;;;6226959;23;20051;-88
2023/03/17 12:31:54;;;;;;;1.02;0.70;;;23.70;1.00;;;;;;6206617;23;20068;-88
2023/03/17 12:34:51;;;;;;;1.25;0.70;;;23.80;1.00;;;;;;6210266;23;20021;-88
2023/03/17 12:37:41;;;;;;;0.63;0.43;;;23.60;1.00;;;;;;6208664;23;20025;-88
2023/03/17 12:40:41;;;;;;;4.25;1.10;;;23.70;1.00;;;;;;6210108;23;20028;-90
2023/03/17 12:43:55;;;;;;;2.63;0.60;;;24.30;1.00;;;;;;6214655;22;20026;-87
2023/03/17 12:47:09;;;;;;;1.00;0.85;;;24.30;1.00;;;;;;6235130;22;20024;-89
2023/03/17 12:50:34;;;;;;;1.30;0.70;;;23.90;1.00;;;;;;6250634;23;20024;-90
2023/03/17 12:53:31;;;;;;;1.02;0.60;;;23.50;1.00;;;;;;6230928;22;20423;-89
2023/03/17 12:57:23;;;;;;;;;;;;;;;;;;;;;
2023/03/17 13:23:23;;;;;;;;;;;;;;;;;;;;;
2023/03/17 13:35:12;;;;;;;;;;;;;;;;;;;;;
2023/03/17 13:39:16;;;;;;;;;;;;;;;;;;;;;
2023/03/17 14:14:03;;;;;;;2.05;1.00;;;23.70;1.00;;;;;;6123315;23;20026;-90
2023/03/17 14:37:45;;;;;;;2.20;1.10;;;22.10;1.00;;;;;;6014362;23;20021;-87
2023/03/17 14:41:03;;;;;;;1.10;0.80;;;22.50;1.00;;;;;;5992612;23;20036;-87
2023/03/17 14:43:55;;;;;;;2.95;0.93;;;22.70;1.00;;;;;;6111145;23;20034;-89
2023/03/17 14:46:43;;;;;;;;;;;22.80;1.00;;;;;;6125243;23;20441;-91
2023/03/17 14:58:47;;;;;;;1.85;0.80;;;22.20;1.00;;;;;;6154268;23;20097;-87
2023/03/17 15:17:47;;;;;;;1.92;0.65;;;21.30;1.00;;;;;;6071296;23;20033;-88
2023/03/17 15:21:06;;;;;;;1.50;1.00;;;21.20;1.00;;;;;;6055431;23;20031;-87
2023/03/17 15:24:32;;;;;;;2.75;1.00;;;21.00;1.00;;;;;;6070037;23;20098;-87
2023/03/17 15:27:22;;;;;;;2.80;1.13;;;21.00;1.00;;;;;;6061102;23;20410;-87
2023/03/17 15:30:20;;;;;;;2.35;1.08;;;20.70;1.00;;;;;;6148637;23;20033;-87
2023/03/17 15:33:29;;;;;;;3.70;1.00;;;20.50;1.00;;;;;;6237150;23;20020;-86
2023/03/17 15:36:24;;;;;;;2.43;1.30;;;20.30;1.00;;;;;;6224332;23;20026;-90
2023/03/17 15:39:25;;;;;;;4.50;1.20;;;20.10;1.00;;;;;;6226559;23;20247;-88
2023/03/17 15:42:59;;;;;;;3.55;1.10;;;19.80;1.00;;;;;;6246750;23;20131;-89
2023/03/17 15:59:01;;;;;;;3.28;0.98;;;18.90;1.00;;;;;;6244866;23;20055;-87
2023/03/17 16:01:49;;;;;;;5.88;1.23;;;18.80;1.00;;;;;;6245638;23;20025;-87
2023/03/17 16:09:13;;;;;;;3.15;1.30;;;18.60;1.00;;;;;;6244108;23;20012;-87
2023/03/17 16:12:00;;;;;;;5.22;1.38;;;18.60;1.00;;;;;;6246638;23;20113;-87
2023/03/17 16:14:48;;;;;;;2.17;1.42;;;18.50;1.00;;;;;;6242595;23;20028;-88
2023/03/17 16:17:36;;;;;;;2.38;1.75;;;18.30;1.00;;;;;;6246458;23;20090;-87
2023/03/17 16:20:41;;;;;;;4.50;1.55;;;18.30;1.00;;;;;;6227001;23;20024;-88
2023/03/17 16:23:31;;;;;;;8.18;2.15;;;18.20;1.00;;;;;;6247003;23;20028;-88
2023/03/17 16:26:24;;;;;;;2.22;1.50;;;18.00;1.00;;;;;;6243629;23;20155;-85
2023/03/17 16:29:15;;;;;;;3.40;1.75;;;17.90;1.00;;;;;;6245536;23;20038;-87
2023/03/17 16:32:03;;;;;;;2.80;1.52;;;17.70;1.00;;;;;;6221991;23;20024;-88
2023/03/17 16:34:52;;;;;;;2.47;1.88;;;17.50;1.00;;;;;;6244572;23;20036;-89
2023/03/17 16:37:40;;;;;;;3.97;1.55;;;17.30;1.00;;;;;;6245611;23;20042;-87
2023/03/17 16:40:45;;;;;;;4.85;1.60;;;17.20;1.00;;;;;;6241434;23;20038;-87
2023/03/17 16:43:36;;;;;;;4.60;1.98;;;17.10;1.00;;;;;;6245421;23;20438;-88
2023/03/17 16:46:34;;;;;;;3.55;1.77;;;16.90;1.00;;;;;;6224974;23;20032;-87
2023/03/17 16:49:30;;;;;;;6.22;1.75;;;16.80;1.00;;;;;;6249579;23;20099;-88
2023/03/17 16:52:17;;;;;;;7.93;2.78;;;16.60;1.00;;;;;;6227515;23;20146;-86
2023/03/17 16:55:08;;;;;;;27.02;5.47;;;16.50;1.00;;;;;;6250096;22;20048;-87
2023/03/17 16:57:59;;;;;;;6.47;2.67;;;16.40;1.00;;;;;;6241579;23;20103;-86
2023/03/17 17:00:50;;;;;;;10.60;2.30;;;16.30;1.00;;;;;;6246091;23;20038;-86
2023/03/17 17:16:35;;;;;;;6.05;2.03;;;16.20;1.00;;;;;;6126250;23;20013;-86
2023/03/17 17:19:31;;;;;;;5.57;2.03;;;16.10;1.00;;;;;;6190619;23;20314;-86
2023/03/17 17:22:44;;;;;;;4.07;1.50;;;15.90;1.00;;;;;;6245078;23;20427;-87
2023/03/17 17:25:33;;;;;;;7.57;1.85;;;15.70;1.00;;;;;;6246883;23;20020;-86
2023/03/17 17:28:22;;;;;;;7.72;2.13;;;15.50;1.00;;;;;;6247476;23;20055;-85
2023/03/17 17:31:25;;;;;;;8.30;2.35;;;15.50;1.00;;;;;;6247054;23;20035;-84
2023/03/17 17:34:14;;;;;;;3.63;1.80;;;15.30;1.00;;;;;;6245270;23;20032;-85
2023/03/17 17:37:01;;;;;;;3.45;2.28;;;15.10;1.00;;;;;;6244946;23;20709;-85
2023/03/17 17:39:52;;;;;;;5.65;2.50;;;15.00;1.00;;;;;;6244544;23;20354;-88
2023/03/17 17:42:41;;;;;;;6.00;2.17;;;14.90;1.00;;;;;;6243101;23;20095;-88
2023/03/17 17:45:36;;;;;;;4.45;2.30;;;14.90;1.00;;;;;;6225170;23;20052;-88
2023/03/17 17:48:25;;;;;;;5.75;2.17;;;14.90;1.00;;;;;;6242075;23;20155;-88
2023/03/17 17:51:14;;;;;;;4.78;2.70;;;14.70;1.00;;;;;;6245395;23;20024;-88
2023/03/17 17:54:01;;;;;;;9.00;3.08;;;14.70;1.00;;;;;;6244372;23;20020;-87
2023/03/17 17:56:49;;;;;;;5.82;2.70;;;14.50;1.00;;;;;;6243961;23;20024;-87
2023/03/17 17:59:37;;;;;;;7.07;2.33;;;14.40;1.00;;;;;;6225197;23;20054;-87
2023/03/17 18:02:29;;;;;;;3.50;2.00;;;14.30;1.00;;;;;;6244502;23;20035;-86
2023/03/17 18:05:17;;;;;;;4.72;2.17;;;14.30;1.00;;;;;;6225843;23;20028;-86
2023/03/17 18:08:05;;;;;;;6.57;2.58;;;14.30;1.00;;;;;;6246977;23;20028;-87
2023/03/17 18:10:56;;;;;;;4.88;2.15;;;14.30;1.00;;;;;;6245059;23;20024;-86
2023/03/17 18:13:44;;;;;;;4.10;2.40;;;14.30;1.00;;;;;;6248498;23;20103;-87
2023/03/17 18:16:34;;;;;;;4.53;2.50;;;14.20;1.00;;;;;;6256834;23;20031;-86
2023/03/17 18:19:22;;;;;;;5.70;3.20;;;14.20;1.00;;;;;;6225830;23;20020;-88
2023/03/17 18:22:10;;;;;;;8.63;2.88;;;14.10;1.00;;;;;;6247214;23;20028;-87
2023/03/17 18:24:57;;;;;;;4.00;2.30;;;14.10;1.00;;;;;;6245573;23;20028;-87
2023/03/17 18:27:46;;;;;;;3.95;2.05;;;14.00;1.00;;;;;;6251043;23;20322;-86
2023/03/17 18:30:33;;;;;;;3.72;2.20;;;14.00;1.00;;;;;;6228396;23;20065;-87
2023/03/17 18:33:21;;;;;;;5.00;2.25;;;13.90;1.00;;;;;;6225660;23;20108;-90
2023/03/17 18:36:10;;;;;;;4.55;2.25;;;13.90;1.00;;;;;;6249308;23;20042;-88
2023/03/17 18:38:57;;;;;;;5.13;2.53;;;13.90;1.00;;;;;;6248602;23;20028;-88
2023/03/17 18:41:45;;;;;;;5.72;2.75;;;13.90;1.00;;;;;;6249395;23;20408;-87
2023/03/17 18:44:33;;;;;;;6.22;2.35;;;13.90;1.00;;;;;;6225781;23;20047;-87
2023/03/17 18:47:20;;;;;;;8.00;3.83;;;13.80;1.00;;;;;;6230487;23;20028;-87
2023/03/17 18:50:10;;;;;;;8.07;4.47;;;13.80;1.00;;;;;;6251052;23;20028;-88
2023/03/17 18:53:01;;;;;;;4.63;2.42;;;13.80;1.00;;;;;;6246071;23;20028;-86
2023/03/17 18:55:49;;;;;;;7.07;2.25;;;13.80;1.00;;;;;;6247187;23;20039;-88
2023/03/17 18:58:36;;;;;;;8.02;2.25;;;13.70;1.00;;;;;;6249560;23;20414;-89
2023/03/17 19:01:26;;;;;;;9.57;3.25;;;13.70;1.00;;;;;;6228546;23;20038;-89
2023/03/17 19:04:14;;;;;;;7.57;2.75;;;13.60;1.00;;;;;;6249074;23;20028;-87
2023/03/17 19:07:06;;;;;;;13.23;5.05;;;13.60;1.00;;;;;;6247776;23;20028;-87
2023/03/17 19:09:56;;;;;;;15.00;5.18;;;13.50;1.00;;;;;;6245895;23;20024;-89
2023/03/17 19:12:50;;;;;;;11.98;5.03;;;13.50;1.00;;;;;;6247362;23;20115;-88
2023/03/17 19:15:38;;;;;;;11.25;5.50;;;13.40;1.00;;;;;;6246545;23;20028;-88
2023/03/17 19:18:26;;;;;;;15.85;7.57;;;13.40;1.00;;;;;;6246845;23;20024;-87
2023/03/17 19:21:13;;;;;;;17.88;7.30;;;13.30;1.00;;;;;;6246424;23;20511;-86
2023/03/17 19:24:00;;;;;;;14.18;6.78;;;13.30;1.00;;;;;;6249035;23;20024;-87
2023/03/17 19:26:52;;;;;;;8.65;3.50;;;13.20;1.00;;;;;;6245899;23;20050;-88
2023/03/17 19:29:39;;;;;;;6.03;2.58;;;13.20;1.00;;;;;;6245634;23;20517;-88
2023/03/17 19:32:27;;;;;;;7.43;3.50;;;13.10;1.00;;;;;;6248360;23;20021;-88
2023/03/17 19:35:14;;;;;;;6.40;3.42;;;13.10;1.00;;;;;;6246301;23;20374;-88
2023/03/17 19:38:04;;;;;;;6.63;4.07;;;13.00;1.00;;;;;;6227514;23;20024;-87
2023/03/17 19:40:54;;;;;;;12.38;6.70;;;12.90;1.00;;;;;;6226035;23;20088;-87
2023/03/17 19:43:44;;;;;;;12.30;5.20;;;12.80;1.00;;;;;;6248936;23;20028;-87
2023/03/17 19:46:33;;;;;;;9.30;4.30;;;12.70;1.00;;;;;;6245921;23;20028;-89
2023/03/17 19:49:21;;;;;;;8.40;4.05;;;12.60;1.00;;;;;;6245924;23;20020;-87
2023/03/17 19:52:09;;;;;;;8.55;3.03;;;12.60;1.00;;;;;;6246301;23;20024;-86
2023/03/17 19:54:56;;;;;;;7.43;3.60;;;12.70;1.00;;;;;;6246401;23;20024;-89
2023/03/17 19:57:44;;;;;;;6.50;3.70;;;12.80;1.00;;;;;;6225645;23;20024;-88
2023/03/17 20:00:35;;;;;;;7.15;3.35;;;12.90;1.00;;;;;;6224407;23;20020;-87
2023/03/17 20:03:28;;;;;;;5.95;2.80;;;12.90;1.00;;;;;;6225065;23;20028;-86
2023/03/17 20:06:18;;;;;;;4.40;2.80;;;12.90;1.00;;;;;;6246467;23;20076;-85
2023/03/17 20:09:07;;;;;;;6.10;2.50;;;12.90;1.00;;;;;;6246807;23;20031;-87
2023/03/17 20:11:58;;;;;;;5.20;2.55;;;12.90;1.00;;;;;;6224123;23;20026;-86
2023/03/17 20:14:46;;;;;;;5.95;2.53;;;12.90;1.00;;;;;;6247735;23;20090;-87
2023/03/17 20:17:36;;;;;;;8.52;2.60;;;12.90;1.00;;;;;;6244343;23;20479;-88
2023/03/17 20:20:27;;;;;;;5.82;2.33;;;12.80;1.00;;;;;;6245168;23;20028;-87
2023/03/17 20:23:21;;;;;;;6.88;2.10;;;12.80;1.00;;;;;;6223708;23;20107;-87
2023/03/17 20:26:08;;;;;;;6.50;2.10;;;12.90;1.00;;;;;;6246734;23;20062;-86
2023/03/17 20:28:56;;;;;;;6.30;2.10;;;12.80;1.00;;;;;;6242844;23;20103;-88
2023/03/17 20:31:43;;;;;;;3.90;2.35;;;12.80;1.00;;;;;;6244755;23;20055;-86
2023/03/17 20:34:33;;;;;;;5.78;2.05;;;12.80;1.00;;;;;;6245160;23;20143;-86
2023/03/17 20:37:21;;;;;;;4.28;1.70;;;12.70;1.00;;;;;;6246092;23;20024;-86
2023/03/17 20:40:09;;;;;;;6.35;2.30;;;12.70;1.00;;;;;;6246375;23;20090;-84
2023/03/17 20:43:05;;;;;;;7.88;2.65;;;12.60;1.00;;;;;;6245248;23;20028;-87
2023/03/17 20:45:53;;;;;;;7.50;2.30;;;12.60;1.00;;;;;;6245389;23;20032;-88
2023/03/17 20:48:45;;;;;;;4.57;2.45;;;12.60;1.00;;;;;;6224812;23;20024;-88
2023/03/17 20:51:36;;;;;;;6.75;2.50;;;12.50;1.00;;;;;;6246468;23;20094;-88
2023/03/17 20:54:24;;;;;;;4.88;2.30;;;12.40;1.00;;;;;;6225549;23;20035;-87
2023/03/17 20:57:15;;;;;;;4.82;2.47;;;12.40;1.00;;;;;;6245859;23;20035;-88
2023/03/17 21:00:11;;;;;;;5.97;2.28;;;12.30;1.00;;;;;;6244695;23;20082;-88
2023/03/17 21:02:59;;;;;;;4.15;2.25;;;12.20;1.00;;;;;;6223646;23;20028;-89
2023/03/17 21:05:46;;;;;;;6.70;3.40;;;12.20;1.00;;;;;;6224038;23;20427;-89
2023/03/17 21:08:34;;;;;;;8.07;3.38;;;12.10;1.00;;;;;;6246914;23;20035;-90
2023/03/17 21:11:29;;;;;;;5.15;2.80;;;12.10;1.00;;;;;;6244635;23;20431;-88
2023/03/17 21:14:17;;;;;;;6.40;3.08;;;12.10;1.00;;;;;;6244901;23;20081;-86
2023/03/17 21:17:05;;;;;;;5.28;2.65;;;12.10;1.00;;;;;;6246759;23;20622;-88
2023/03/17 21:20:00;;;;;;;2.55;2.20;;;12.00;1.00;;;;;;6231698;23;20066;-88
2023/03/17 21:22:47;;;;;;;4.57;2.20;;;12.00;1.00;;;;;;6258458;23;20038;-86
2023/03/17 21:25:35;;;;;;;4.50;2.75;;;12.00;1.00;;;;;;6259197;23;20093;-86
2023/03/17 21:28:23;;;;;;;4.68;2.05;;;11.90;1.00;;;;;;6246050;23;20086;-87
2023/03/17 21:31:12;;;;;;;6.40;2.05;;;11.90;1.00;;;;;;6244516;23;20024;-87
2023/03/17 21:33:59;;;;;;;4.25;2.20;;;11.90;1.00;;;;;;6244531;23;20106;-86
2023/03/17 21:36:47;;;;;;;4.65;2.22;;;11.90;1.00;;;;;;6246958;23;20339;-88
2023/03/17 21:39:36;;;;;;;5.28;1.88;;;11.80;1.00;;;;;;6225340;23;20423;-88